createdAt,value
2018-11-25T00:00:03.941Z,76.90
2018-11-25T00:01:55.862Z,64.30
2018-11-25T00:02:55.852Z,59.40
2018-11-25T00:04:47.756Z,76.00
2018-11-25T00:05:47.760Z,60.00
2018-11-25T00:07:39.689Z,73.70
2018-11-25T00:08:39.677Z,81.70
2018-11-25T00:10:31.581Z,65.20
2018-11-25T00:11:31.589Z,57.10
2018-11-25T00:13:23.516Z,55.20
2018-11-25T00:14:23.510Z,52.30
2018-11-25T00:16:15.417Z,64.50
2018-11-25T00:17:15.414Z,62.90
2018-11-25T00:19:07.341Z,60.40
2018-11-25T00:20:07.330Z,56.50
2018-11-25T00:21:59.260Z,56.10
2018-11-25T00:22:59.235Z,53.60
2018-11-25T00:24:51.147Z,55.60
2018-11-25T00:25:51.152Z,58.00
2018-11-25T00:27:43.075Z,56.00
2018-11-25T00:28:43.063Z,54.50
2018-11-25T00:30:34.963Z,53.70
2018-11-25T00:31:34.969Z,54.90
2018-11-25T00:33:26.895Z,53.30
2018-11-25T00:34:26.884Z,55.10
2018-11-25T00:36:18.787Z,51.80
2018-11-25T00:37:18.790Z,58.60
2018-11-25T00:39:10.728Z,55.70
2018-11-25T00:40:10.707Z,56.20
2018-11-25T00:42:02.635Z,56.20
2018-11-25T00:43:02.632Z,54.50
2018-11-25T00:44:54.538Z,52.70
2018-11-25T00:45:54.547Z,55.70
2018-11-25T00:47:46.465Z,57.20
2018-11-25T00:48:46.458Z,55.20
2018-11-25T00:50:38.364Z,57.30
2018-11-25T00:51:38.374Z,54.80
2018-11-25T00:53:30.292Z,54.00
2018-11-25T00:54:30.278Z,54.90
2018-11-25T00:56:22.184Z,56.20
2018-11-25T00:57:22.190Z,52.00
2018-11-25T00:59:14.120Z,54.50
2018-11-25T01:00:14.103Z,52.20
2018-11-25T01:02:06.043Z,53.60
2018-11-25T01:03:06.026Z,60.60
2018-11-25T01:04:57.940Z,63.50
2018-11-25T01:05:57.941Z,59.10
2018-11-25T01:07:49.870Z,60.50
2018-11-25T01:08:49.855Z,56.80
2018-11-25T01:10:41.763Z,57.70
2018-11-25T01:11:41.769Z,56.90
2018-11-25T01:13:33.693Z,65.30
2018-11-25T01:14:33.677Z,63.50
2018-11-25T01:16:25.583Z,59.70
2018-11-25T01:17:25.589Z,56.80
2018-11-25T01:19:17.520Z,59.30
2018-11-25T01:20:17.507Z,62.50
2018-11-25T01:22:09.430Z,60.90
2018-11-25T01:23:09.417Z,62.10
2018-11-25T01:25:01.326Z,54.80
2018-11-25T01:26:01.333Z,57.70
2018-11-25T01:27:54.746Z,57.50
2018-11-25T01:28:54.736Z,55.50
2018-11-25T01:30:46.639Z,55.20
2018-11-25T01:31:46.654Z,59.20
2018-11-25T01:33:38.570Z,57.50
2018-11-25T01:34:38.568Z,59.00
2018-11-25T01:36:30.466Z,56.00
2018-11-25T01:37:30.471Z,56.20
2018-11-25T01:39:22.399Z,56.40
2018-11-25T01:40:22.381Z,55.20
2018-11-25T01:42:14.296Z,60.40
2018-11-25T01:43:14.302Z,60.00
2018-11-25T01:45:06.233Z,61.50
2018-11-25T01:46:06.214Z,55.50
2018-11-25T01:47:58.136Z,63.00
2018-11-25T01:48:58.123Z,61.90
2018-11-25T01:50:50.027Z,64.30
2018-11-25T01:51:50.036Z,59.30
2018-11-25T01:53:41.958Z,60.80
2018-11-25T01:54:41.948Z,59.80
2018-11-25T01:56:33.857Z,61.70
2018-11-25T01:57:33.854Z,61.30
2018-11-25T01:59:25.782Z,67.80
2018-11-25T02:00:25.781Z,65.00
2018-11-25T02:02:17.676Z,64.70
2018-11-25T02:03:17.682Z,66.40
2018-11-25T02:05:09.611Z,62.10
2018-11-25T02:06:09.593Z,66.00
2018-11-25T02:08:01.522Z,56.50
2018-11-25T02:09:01.510Z,55.70
2018-11-25T02:10:53.415Z,56.20
2018-11-25T02:11:53.421Z,56.60
2018-11-25T02:13:45.354Z,53.20
2018-11-25T02:14:45.344Z,53.20
2018-11-25T02:16:37.246Z,54.40
2018-11-25T02:17:37.255Z,58.70
2018-11-25T02:19:29.177Z,55.80
2018-11-25T02:20:29.170Z,59.30
2018-11-25T02:22:21.083Z,65.60
2018-11-25T02:23:21.086Z,70.40
2018-11-25T02:25:13.020Z,72.90
2018-11-25T02:26:12.999Z,67.70
2018-11-25T02:28:04.923Z,57.60
2018-11-25T02:29:04.908Z,59.50
2018-11-25T02:30:56.817Z,60.40
2018-11-25T02:31:56.823Z,62.00
2018-11-25T02:33:48.753Z,52.60
2018-11-25T02:34:48.741Z,56.20
2018-11-25T02:36:40.648Z,50.90
2018-11-25T02:37:40.691Z,55.90
2018-11-25T02:39:32.579Z,54.80
2018-11-25T02:40:32.568Z,57.10
2018-11-25T02:42:24.479Z,57.70
2018-11-25T02:43:24.524Z,57.70
2018-11-25T02:45:16.429Z,56.30
2018-11-25T02:46:16.410Z,58.70
2018-11-25T02:48:08.360Z,58.30
2018-11-25T02:49:08.344Z,59.50
2018-11-25T02:51:00.262Z,58.30
2018-11-25T02:52:00.258Z,56.10
2018-11-25T02:53:52.186Z,62.60
2018-11-25T02:54:52.195Z,60.10
2018-11-25T02:56:44.081Z,65.50
2018-11-25T02:57:44.082Z,72.10
2018-11-25T02:59:36.013Z,75.70
2018-11-25T03:00:35.998Z,80.70
2018-11-25T03:02:27.911Z,65.90
2018-11-25T03:03:27.912Z,79.30
2018-11-25T03:05:19.837Z,67.50
2018-11-25T03:06:19.825Z,61.10
2018-11-25T03:08:11.751Z,69.60
2018-11-25T03:09:11.758Z,61.30
2018-11-25T03:38:18.139Z,38.80
2018-11-25T03:39:18.115Z,64.90
2018-11-25T03:41:10.028Z,66.70
2018-11-25T03:42:10.009Z,66.80
2018-11-25T03:44:01.943Z,59.30
2018-11-25T03:45:01.938Z,54.40
2018-11-25T03:46:53.836Z,48.50
2018-11-25T03:47:53.839Z,49.00
2018-11-25T03:49:45.789Z,51.60
2018-11-25T03:50:45.767Z,47.00
2018-11-25T03:52:37.669Z,49.60
2018-11-25T03:53:37.667Z,51.90
2018-11-25T03:55:29.591Z,50.50
2018-11-25T03:56:29.573Z,50.90
2018-11-25T03:58:21.480Z,55.70
2018-11-25T03:59:21.479Z,58.00
2018-11-25T04:01:13.420Z,57.40
2018-11-25T04:02:13.406Z,57.10
2018-11-25T04:04:05.342Z,61.50
2018-11-25T04:05:05.331Z,67.90
2018-11-25T04:06:57.252Z,66.00
2018-11-25T04:07:57.252Z,63.90
2018-11-25T04:09:49.204Z,64.60
2018-11-25T04:10:49.190Z,60.90
2018-11-25T04:12:41.098Z,60.60
2018-11-25T04:13:41.100Z,67.70
2018-11-25T04:15:33.038Z,71.20
2018-11-25T04:16:33.027Z,69.60
2018-11-25T04:18:24.949Z,70.10
2018-11-25T04:19:24.958Z,68.90
2018-11-25T04:21:16.900Z,62.40
2018-11-25T04:22:16.883Z,57.80
2018-11-25T04:24:09.309Z,63.80
2018-11-25T04:25:09.296Z,63.80
2018-11-25T04:27:01.215Z,55.80
2018-11-25T04:28:01.221Z,61.40
2018-11-25T04:29:53.154Z,62.70
2018-11-25T04:30:53.152Z,58.90
2018-11-25T04:32:45.068Z,56.30
2018-11-25T04:33:45.071Z,57.00
2018-11-25T04:35:37.021Z,56.70
2018-11-25T04:36:37.019Z,55.40
2018-11-25T04:38:28.923Z,54.60
2018-11-25T04:39:28.933Z,54.40
2018-11-25T04:41:20.859Z,52.30
2018-11-25T04:42:20.847Z,48.90
2018-11-25T04:44:12.822Z,48.90
2018-11-25T04:45:12.764Z,48.40
2018-11-25T04:47:04.670Z,53.70
2018-11-25T04:48:04.673Z,50.30
2018-11-25T04:49:56.611Z,53.60
2018-11-25T04:50:56.599Z,53.50
2018-11-25T04:52:48.509Z,52.20
2018-11-25T04:53:48.513Z,53.20
2018-11-25T04:55:40.436Z,50.30
2018-11-25T04:56:40.424Z,49.90
2018-11-25T04:58:32.327Z,48.70
2018-11-25T04:59:32.332Z,49.40
2018-11-25T05:01:24.256Z,45.40
2018-11-25T05:02:24.247Z,47.60
2018-11-25T05:04:16.171Z,45.50
2018-11-25T05:05:16.158Z,44.20
2018-11-25T05:07:08.100Z,46.10
2018-11-25T05:08:08.064Z,47.30
2018-11-25T05:09:59.983Z,46.90
2018-11-25T05:10:59.972Z,47.20
2018-11-25T05:12:52.072Z,46.20
2018-11-25T05:13:52.075Z,45.50
2018-11-25T05:15:43.997Z,43.20
2018-11-25T05:16:43.989Z,39.80
2018-11-25T05:18:35.884Z,41.00
2018-11-25T05:19:35.893Z,43.80
2018-11-25T05:21:27.821Z,40.50
2018-11-25T05:22:27.806Z,42.80
2018-11-25T05:24:19.714Z,44.30
2018-11-25T05:25:19.722Z,43.60
2018-11-25T05:27:11.645Z,45.70
2018-11-25T05:28:11.630Z,44.60
2018-11-25T05:30:03.562Z,48.20
2018-11-25T05:31:03.549Z,45.90
2018-11-25T05:32:55.460Z,46.00
2018-11-25T05:33:55.454Z,46.30
2018-11-25T05:35:47.384Z,46.60
2018-11-25T05:36:47.377Z,50.20
2018-11-25T05:38:39.295Z,44.30
2018-11-25T05:39:39.301Z,45.90
2018-11-25T05:41:31.261Z,49.50
2018-11-25T05:42:31.244Z,41.00
2018-11-25T05:44:23.141Z,44.20
2018-11-25T05:45:23.147Z,41.90
2018-11-25T05:47:15.078Z,37.10
2018-11-25T05:48:15.065Z,39.50
2018-11-25T05:50:06.993Z,36.00
2018-11-25T05:51:06.977Z,36.90
2018-11-25T05:52:58.888Z,37.80
2018-11-25T05:53:58.892Z,39.50
2018-11-25T05:55:50.817Z,36.80
2018-11-25T05:56:50.806Z,38.80
2018-11-25T05:58:42.725Z,39.00
2018-11-25T05:59:42.720Z,36.20
2018-11-25T06:01:34.648Z,35.80
2018-11-25T06:02:34.637Z,35.70
2018-11-25T06:04:26.538Z,38.00
2018-11-25T06:05:26.543Z,40.50
2018-11-25T06:07:18.471Z,39.50
2018-11-25T06:08:18.466Z,38.50
2018-11-25T06:10:10.382Z,45.90
2018-11-25T06:11:10.371Z,43.10
2018-11-25T06:13:02.779Z,44.90
2018-11-25T06:14:02.781Z,46.20
2018-11-25T06:15:54.707Z,43.20
2018-11-25T06:16:54.695Z,48.60
2018-11-25T06:18:46.600Z,49.80
2018-11-25T06:19:46.606Z,44.50
2018-11-25T06:21:38.551Z,46.50
2018-11-25T06:22:38.532Z,48.50
2018-11-25T06:24:30.453Z,59.10
2018-11-25T06:25:30.460Z,43.00
2018-11-25T06:27:22.412Z,42.60
2018-11-25T06:28:22.386Z,39.50
2018-11-25T06:30:14.333Z,40.40
2018-11-25T06:31:14.321Z,42.50
2018-11-25T06:33:06.258Z,43.50
2018-11-25T06:34:06.269Z,45.10
2018-11-25T06:35:58.218Z,39.90
2018-11-25T06:36:58.190Z,45.00
2018-11-25T06:38:50.112Z,41.80
2018-11-25T06:39:50.117Z,43.30
2018-11-25T06:41:42.059Z,43.60
2018-11-25T06:42:42.049Z,42.50
2018-11-25T06:44:33.968Z,45.40
2018-11-25T06:45:33.975Z,46.40
2018-11-25T06:47:25.928Z,52.10
2018-11-25T06:48:25.914Z,64.30
2018-11-25T06:50:17.863Z,47.00
2018-11-25T06:51:17.846Z,42.80
2018-11-25T06:53:09.770Z,43.70
2018-11-25T06:54:09.779Z,42.20
2018-11-25T06:56:01.715Z,45.20
2018-11-25T06:57:01.707Z,46.40
2018-11-25T06:58:53.621Z,43.60
2018-11-25T06:59:53.630Z,45.30
2018-11-25T07:01:45.567Z,36.70
2018-11-25T07:02:45.558Z,39.60
2018-11-25T07:04:37.482Z,39.80
2018-11-25T07:05:37.478Z,40.50
2018-11-25T07:07:29.444Z,39.90
2018-11-25T07:08:29.429Z,40.10
2018-11-25T07:10:21.340Z,39.00
2018-11-25T07:11:21.348Z,38.00
2018-11-25T07:13:13.273Z,43.30
2018-11-25T07:14:13.251Z,37.90
2018-11-25T07:16:06.444Z,40.90
2018-11-25T07:17:05.174Z,40.90
2018-11-25T07:18:57.100Z,41.90
2018-11-25T07:19:57.109Z,40.40
2018-11-25T07:21:49.056Z,44.00
2018-11-25T07:22:49.056Z,43.90
2018-11-25T07:24:40.968Z,42.20
2018-11-25T07:25:40.968Z,45.40
2018-11-25T07:27:32.902Z,43.40
2018-11-25T07:28:32.888Z,43.80
2018-11-25T07:30:24.798Z,39.80
2018-11-25T07:31:24.806Z,44.20
2018-11-25T07:33:16.740Z,44.80
2018-11-25T07:34:16.732Z,47.40
2018-11-25T07:36:08.666Z,47.60
2018-11-25T07:37:08.653Z,46.10
2018-11-25T07:39:00.556Z,54.70
2018-11-25T07:40:00.562Z,52.70
2018-11-25T07:41:52.502Z,55.80
2018-11-25T07:42:52.489Z,54.60
2018-11-25T07:44:44.404Z,53.80
2018-11-25T07:45:44.411Z,52.60
2018-11-25T07:47:36.367Z,59.30
2018-11-25T07:48:36.355Z,65.80
2018-11-25T07:50:28.254Z,63.40
2018-11-25T07:51:28.263Z,64.50
2018-11-25T07:53:20.186Z,63.50
2018-11-25T07:54:20.172Z,68.30
2018-11-25T07:56:12.124Z,69.70
2018-11-25T07:57:12.104Z,69.50
2018-11-25T07:59:04.023Z,68.10
2018-11-25T08:00:04.027Z,61.90
2018-11-25T08:01:55.970Z,73.30
2018-11-25T08:02:55.963Z,66.50
2018-11-25T08:04:47.864Z,52.50
2018-11-25T08:05:47.873Z,53.60
2018-11-25T08:07:39.825Z,49.60
2018-11-25T08:08:39.813Z,54.90
2018-11-25T08:10:31.730Z,54.80
2018-11-25T08:11:31.736Z,56.00
2018-11-25T08:13:23.655Z,53.80
2018-11-25T08:14:23.648Z,55.10
2018-11-25T08:16:15.592Z,51.10
2018-11-25T08:17:15.572Z,50.20
2018-11-25T08:19:07.499Z,44.20
2018-11-25T08:20:07.505Z,46.30
2018-11-25T08:21:59.432Z,51.90
2018-11-25T08:22:59.419Z,51.20
2018-11-25T08:24:51.327Z,50.20
2018-11-25T08:25:51.334Z,49.40
2018-11-25T08:27:43.257Z,54.80
2018-11-25T08:28:43.241Z,53.10
2018-11-25T08:30:35.149Z,58.90
2018-11-25T08:31:35.153Z,59.60
2018-11-25T08:33:27.097Z,53.40
2018-11-25T08:34:27.082Z,50.70
2018-11-25T08:36:19.511Z,50.90
2018-11-25T08:37:19.503Z,54.50
2018-11-25T08:39:11.431Z,54.70
2018-11-25T08:40:11.431Z,58.40
2018-11-25T08:42:03.357Z,60.70
2018-11-25T08:43:03.348Z,60.00
2018-11-25T08:44:55.274Z,68.70
2018-11-25T08:45:55.275Z,67.30
2018-11-25T08:47:47.204Z,71.80
2018-11-25T08:48:47.189Z,67.50
2018-11-25T08:50:39.096Z,74.80
2018-11-25T08:51:39.105Z,74.10
2018-11-25T08:53:31.032Z,81.70
2018-11-25T08:54:31.031Z,81.80
2018-11-25T08:56:22.977Z,86.10
2018-11-25T08:57:22.938Z,89.60
2018-11-25T08:59:14.846Z,90.30
2018-11-25T09:00:14.853Z,96.90
2018-11-25T09:02:06.810Z,96.50
2018-11-25T09:03:06.787Z,97.50
2018-11-25T09:04:58.748Z,98.00
2018-11-25T09:05:58.757Z,96.60
2018-11-25T09:07:50.685Z,100.70
2018-11-25T09:08:50.661Z,102.90
2018-11-25T09:10:42.590Z,106.60
2018-11-25T09:11:42.594Z,100.00
2018-11-25T09:13:35.025Z,105.60
2018-11-25T09:14:35.013Z,110.10
2018-11-25T09:16:26.925Z,101.40
2018-11-25T09:17:26.930Z,99.50
2018-11-25T09:19:18.855Z,101.50
2018-11-25T09:20:18.846Z,94.80
2018-11-25T09:22:10.779Z,98.90
2018-11-25T09:23:10.764Z,101.80
2018-11-25T09:25:02.682Z,90.60
2018-11-25T09:26:02.688Z,85.70
2018-11-25T09:27:55.142Z,88.80
2018-11-25T09:28:55.092Z,89.00
2018-11-25T09:30:47.010Z,90.10
2018-11-25T09:31:47.016Z,90.90
2018-11-25T09:33:38.955Z,89.80
2018-11-25T09:34:38.928Z,91.80
2018-11-25T09:36:30.835Z,88.00
2018-11-25T09:37:30.845Z,93.30
2018-11-25T09:39:22.791Z,86.90
2018-11-25T09:40:22.757Z,94.30
2018-11-25T09:42:14.685Z,84.50
2018-11-25T09:43:14.672Z,82.90
2018-11-25T09:45:06.580Z,94.70
2018-11-25T09:46:06.584Z,93.60
2018-11-25T09:47:58.524Z,86.60
2018-11-25T09:48:58.509Z,85.50
2018-11-25T09:50:50.412Z,84.60
2018-11-25T09:51:50.417Z,82.50
2018-11-25T09:53:42.339Z,85.10
2018-11-25T09:54:42.325Z,80.10
2018-11-25T09:56:34.237Z,77.40
2018-11-25T09:57:34.233Z,84.60
2018-11-25T09:59:26.159Z,81.10
2018-11-25T10:00:26.150Z,81.50
2018-11-25T10:02:18.072Z,81.30
2018-11-25T10:03:18.052Z,86.40
2018-11-25T10:05:09.956Z,85.70
2018-11-25T10:06:09.971Z,80.20
2018-11-25T10:08:01.893Z,76.00
2018-11-25T10:09:01.873Z,77.90
2018-11-25T10:10:53.777Z,86.70
2018-11-25T10:11:53.787Z,83.00
2018-11-25T10:13:45.739Z,78.70
2018-11-25T10:14:45.688Z,76.50
2018-11-25T10:15:45.702Z,81.00
2018-11-25T10:16:45.715Z,79.20
2018-11-25T10:17:45.735Z,80.10
2018-11-25T10:18:45.738Z,78.10
2018-11-25T10:19:45.751Z,81.50
2018-11-25T10:20:45.764Z,77.20
2018-11-25T10:21:45.773Z,74.00
2018-11-25T10:22:45.786Z,76.90
2018-11-25T10:23:45.807Z,73.50
2018-11-25T10:24:45.820Z,76.00
2018-11-25T10:25:45.825Z,71.30
2018-11-25T10:26:45.832Z,78.40
2018-11-25T10:27:45.853Z,74.10
2018-11-25T10:28:45.867Z,74.00
2018-11-25T10:29:45.876Z,74.00
2018-11-25T10:30:45.878Z,81.50
2018-11-25T10:31:45.894Z,77.10
2018-11-25T10:32:45.908Z,80.60
2018-11-25T10:33:45.916Z,87.20
2018-11-25T10:34:45.931Z,83.00
2018-11-25T10:35:45.939Z,83.60
2018-11-25T10:36:45.957Z,82.40
2018-11-25T10:37:45.975Z,78.10
2018-11-25T10:38:45.980Z,84.30
2018-11-25T10:39:45.992Z,79.60
2018-11-25T10:40:46.004Z,80.30
2018-11-25T10:41:46.015Z,79.40
2018-11-25T10:42:46.027Z,80.60
2018-11-25T10:43:46.042Z,81.10
2018-11-25T10:44:46.049Z,75.30
2018-11-25T10:45:46.060Z,77.90
2018-11-25T10:46:46.074Z,78.70
2018-11-25T10:47:46.098Z,78.90
2018-11-25T10:48:46.108Z,71.80
2018-11-25T10:49:46.117Z,75.50
2018-11-25T10:50:51.096Z,75.10
2018-11-25T10:51:46.151Z,84.80
2018-11-25T10:52:46.145Z,79.50
2018-11-25T10:53:46.162Z,75.70
2018-11-25T10:54:46.167Z,77.60
2018-11-25T10:55:46.177Z,77.70
2018-11-25T10:56:46.196Z,76.30
2018-11-25T10:57:46.208Z,74.60
2018-11-25T10:58:46.214Z,81.50
2018-11-25T10:59:46.239Z,82.00
2018-11-25T11:00:46.245Z,81.90
2018-11-25T11:01:46.256Z,81.80
2018-11-25T11:02:46.272Z,82.10
2018-11-25T11:03:46.281Z,77.70
2018-11-25T11:04:46.293Z,76.30
2018-11-25T11:05:46.310Z,81.80
2018-11-25T11:06:46.317Z,76.40
2018-11-25T11:07:46.329Z,75.00
2018-11-25T11:08:46.333Z,76.50
2018-11-25T11:09:46.349Z,73.60
2018-11-25T11:10:46.361Z,73.00
2018-11-25T11:11:46.372Z,75.90
2018-11-25T11:12:46.426Z,77.70
2018-11-25T11:13:46.396Z,75.70
2018-11-25T11:14:46.412Z,76.40
2018-11-25T11:15:46.433Z,72.90
2018-11-25T11:16:49.381Z,70.80
2018-11-25T11:17:46.458Z,66.00
2018-11-25T11:18:46.454Z,71.00
2018-11-25T11:19:46.468Z,69.50
2018-11-25T11:20:46.488Z,70.40
2018-11-25T11:21:46.498Z,68.40
2018-11-25T11:22:46.505Z,65.10
2018-11-25T11:23:46.516Z,74.70
2018-11-25T11:24:46.584Z,73.00
2018-11-25T11:25:46.547Z,71.90
2018-11-25T11:26:46.558Z,68.30
2018-11-25T11:27:46.569Z,74.70
2018-11-25T11:28:46.582Z,73.40
2018-11-25T11:29:46.595Z,75.00
2018-11-25T11:30:46.605Z,77.80
2018-11-25T11:31:46.619Z,75.40
2018-11-25T11:32:46.633Z,77.70
2018-11-25T11:33:46.643Z,78.00
2018-11-25T11:34:46.664Z,75.90
2018-11-25T11:35:46.669Z,76.30
2018-11-25T11:36:46.678Z,80.20
2018-11-25T11:37:46.697Z,74.60
2018-11-25T11:38:46.703Z,74.60
2018-11-25T11:39:46.767Z,75.00
2018-11-25T11:40:46.729Z,77.90
2018-11-25T11:41:46.741Z,73.60
2018-11-25T11:42:46.758Z,78.80
2018-11-25T11:43:46.766Z,85.50
2018-11-25T11:44:46.782Z,86.50
2018-11-25T11:45:46.808Z,89.70
2018-11-25T11:46:46.806Z,94.30
2018-11-25T11:47:46.819Z,91.10
2018-11-25T11:48:46.828Z,94.10
2018-11-25T11:49:46.843Z,95.30
2018-11-25T11:50:46.852Z,95.30
2018-11-25T11:51:46.866Z,99.70
2018-11-25T11:52:46.886Z,96.20
2018-11-25T11:53:46.902Z,96.00
2018-11-25T11:54:46.900Z,98.80
2018-11-25T11:55:46.912Z,92.80
2018-11-25T11:56:46.928Z,96.10
2018-11-25T11:57:46.942Z,92.50
2018-11-25T11:58:46.957Z,91.90
2018-11-25T11:59:46.966Z,90.40
2018-11-25T12:00:46.978Z,96.20
2018-11-25T12:01:46.990Z,98.50
2018-11-25T12:02:47.008Z,97.50
2018-11-25T12:03:47.018Z,94.70
2018-11-25T12:04:47.026Z,92.50
2018-11-25T12:05:47.035Z,98.00
2018-11-25T12:06:47.050Z,96.60
2018-11-25T12:07:47.059Z,95.70
2018-11-25T12:08:47.073Z,95.20
2018-11-25T12:09:47.091Z,88.30
2018-11-25T12:10:47.100Z,86.20
2018-11-25T12:11:47.114Z,91.00
2018-11-25T12:12:47.127Z,90.80
2018-11-25T12:13:47.140Z,93.40
2018-11-25T12:14:50.197Z,95.20
2018-11-25T12:15:47.161Z,93.30
2018-11-25T12:16:47.173Z,91.10
2018-11-25T12:17:47.195Z,94.50
2018-11-25T12:18:47.197Z,93.80
2018-11-25T12:19:47.211Z,91.80
2018-11-25T12:20:47.229Z,95.60
2018-11-25T12:21:47.233Z,92.90
2018-11-25T12:22:47.246Z,94.30
2018-11-25T12:23:47.339Z,92.20
2018-11-25T12:24:47.270Z,98.00
2018-11-25T12:25:47.279Z,94.50
2018-11-25T12:26:47.296Z,97.20
2018-11-25T12:27:47.314Z,94.10
2018-11-25T12:28:47.320Z,95.70
2018-11-25T12:29:47.334Z,97.50
2018-11-25T12:30:47.341Z,98.40
2018-11-25T12:31:47.355Z,97.40
2018-11-25T12:32:47.368Z,101.00
2018-11-25T12:33:47.382Z,99.30
2018-11-25T12:34:47.394Z,96.90
2018-11-25T12:35:47.406Z,93.70
2018-11-25T12:36:47.424Z,96.60
2018-11-25T12:37:47.430Z,84.40
2018-11-25T12:38:47.442Z,89.90
2018-11-25T12:39:47.459Z,89.10
2018-11-25T12:40:47.468Z,89.40
2018-11-25T12:41:47.482Z,87.00
2018-11-25T12:42:47.492Z,92.00
2018-11-25T12:43:47.509Z,88.20
2018-11-25T12:44:47.530Z,85.20
2018-11-25T12:45:47.529Z,84.10
2018-11-25T12:46:47.542Z,95.80
2018-11-25T12:47:47.553Z,84.20
2018-11-25T12:48:47.565Z,85.60
2018-11-25T12:49:47.586Z,83.20
2018-11-25T12:50:47.584Z,80.50
2018-11-25T12:51:47.603Z,86.20
2018-11-25T12:52:47.616Z,83.00
2018-11-25T12:53:47.626Z,91.40
2018-11-25T12:54:47.635Z,90.50
2018-11-25T12:55:47.650Z,92.40
2018-11-25T12:56:51.747Z,94.00
2018-11-25T12:57:47.679Z,83.50
2018-11-25T12:58:47.685Z,89.90
2018-11-25T12:59:47.697Z,96.60
2018-11-25T13:00:47.714Z,84.90
2018-11-25T13:01:47.723Z,83.50
2018-11-25T13:02:47.736Z,88.50
2018-11-25T13:03:47.747Z,85.80
2018-11-25T13:04:47.756Z,85.70
2018-11-25T13:05:47.773Z,85.90
2018-11-25T13:06:47.784Z,79.40
2018-11-25T13:07:47.797Z,85.20
2018-11-25T13:08:47.808Z,82.60
2018-11-25T13:09:47.823Z,79.30
2018-11-25T13:10:47.847Z,83.50
2018-11-25T13:11:52.360Z,83.70
2018-11-25T13:12:47.860Z,83.10
2018-11-25T13:13:47.869Z,87.00
2018-11-25T13:14:47.885Z,81.40
2018-11-25T13:15:47.893Z,80.80
2018-11-25T13:16:47.908Z,81.20
2018-11-25T13:17:47.972Z,83.20
2018-11-25T13:18:47.939Z,84.30
2018-11-25T13:19:47.941Z,87.50
2018-11-25T13:20:47.959Z,89.30
2018-11-25T13:21:47.968Z,85.00
2018-11-25T13:22:47.976Z,80.50
2018-11-25T13:23:47.989Z,86.50
2018-11-25T13:24:48.005Z,89.40
2018-11-25T13:25:48.014Z,85.10
2018-11-25T13:26:48.026Z,85.40
2018-11-25T13:27:48.046Z,89.60
2018-11-25T13:28:48.050Z,86.60
2018-11-25T13:29:48.074Z,84.70
2018-11-25T13:30:48.085Z,88.20
2018-11-25T13:31:48.087Z,86.80
2018-11-25T13:32:48.100Z,93.90
2018-11-25T13:33:48.114Z,88.60
2018-11-25T13:34:48.121Z,90.20
2018-11-25T13:35:48.137Z,91.90
2018-11-25T13:36:48.144Z,94.40
2018-11-25T13:37:48.195Z,94.30
2018-11-25T13:38:48.168Z,93.30
2018-11-25T13:39:48.181Z,98.40
2018-11-25T13:40:49.481Z,95.70
2018-11-25T13:41:48.216Z,95.40
2018-11-25T13:42:48.213Z,98.60
2018-11-25T13:43:48.228Z,96.70
2018-11-25T13:44:48.241Z,95.70
2018-11-25T13:45:48.257Z,98.10
2018-11-25T13:46:48.265Z,90.30
2018-11-25T13:47:48.274Z,97.20
2018-11-25T13:48:48.289Z,92.30
2018-11-25T13:49:48.302Z,104.00
2018-11-25T13:50:48.311Z,104.20
2018-11-25T13:51:48.324Z,99.10
2018-11-25T13:52:48.337Z,95.90
2018-11-25T13:53:48.349Z,90.50
2018-11-25T13:54:48.364Z,103.20
2018-11-25T13:55:48.373Z,101.80
2018-11-25T13:56:48.379Z,97.00
2018-11-25T13:57:48.402Z,94.30
2018-11-25T13:58:48.405Z,98.70
2018-11-25T13:59:48.416Z,98.70
2018-11-25T14:00:48.430Z,94.20
2018-11-25T14:01:48.439Z,98.00
2018-11-25T14:02:48.450Z,101.70
2018-11-25T14:03:48.468Z,94.40
2018-11-25T14:04:48.476Z,98.30
2018-11-25T14:05:53.243Z,93.50
2018-11-25T14:06:48.498Z,104.50
2018-11-25T14:07:48.509Z,99.70
2018-11-25T14:08:48.521Z,102.80
2018-11-25T14:09:48.535Z,102.50
2018-11-25T14:10:48.553Z,104.40
2018-11-25T14:11:48.553Z,99.40
2018-11-25T14:12:48.567Z,101.90
2018-11-25T14:13:48.580Z,98.60
2018-11-25T14:14:48.594Z,98.30
2018-11-25T14:15:48.603Z,102.90
2018-11-25T14:16:48.615Z,97.20
2018-11-25T14:17:48.627Z,99.20
2018-11-25T14:18:48.640Z,96.90
2018-11-25T14:19:48.652Z,99.90
2018-11-25T14:20:48.660Z,96.10
2018-11-25T14:21:48.675Z,99.90
2018-11-25T14:22:48.682Z,98.80
2018-11-25T14:23:48.694Z,101.80
2018-11-25T14:24:48.707Z,95.00
2018-11-25T14:25:48.729Z,97.50
2018-11-25T14:26:48.731Z,93.80
2018-11-25T14:27:48.766Z,106.60
2018-11-25T14:28:48.753Z,98.40
2018-11-25T14:29:48.769Z,100.60
2018-11-25T14:30:48.783Z,100.60
2018-11-25T14:31:48.788Z,96.60
2018-11-25T14:32:48.800Z,97.50
2018-11-25T14:33:48.808Z,100.60
2018-11-25T14:34:48.823Z,93.70
2018-11-25T14:35:48.839Z,95.50
2018-11-25T14:36:48.845Z,101.70
2018-11-25T14:37:48.857Z,93.70
2018-11-25T14:38:48.869Z,101.10
2018-11-25T14:39:48.882Z,95.90
2018-11-25T14:40:48.894Z,99.90
2018-11-25T14:41:48.903Z,93.00
2018-11-25T14:42:48.934Z,95.90
2018-11-25T14:43:48.930Z,93.10
2018-11-25T14:44:48.939Z,97.70
2018-11-25T14:45:48.953Z,96.50
2018-11-25T14:46:48.971Z,99.10
2018-11-25T14:47:48.974Z,97.90
2018-11-25T14:48:48.986Z,100.70
2018-11-25T14:49:48.998Z,101.40
2018-11-25T14:50:49.010Z,101.50
2018-11-25T14:51:49.026Z,98.90
2018-11-25T14:52:49.037Z,101.20
2018-11-25T14:53:49.044Z,100.80
2018-11-25T14:54:51.321Z,100.80
2018-11-25T14:55:49.069Z,103.20
2018-11-25T14:56:49.084Z,99.20
2018-11-25T14:57:49.095Z,107.40
2018-11-25T14:58:49.104Z,103.80
2018-11-25T14:59:49.115Z,103.10
2018-11-25T15:00:49.125Z,107.60
2018-11-25T15:01:49.147Z,105.10
2018-11-25T15:02:49.147Z,102.50
2018-11-25T15:03:49.162Z,104.10
2018-11-25T15:04:49.169Z,97.60
2018-11-25T15:05:49.183Z,102.50
2018-11-25T15:06:49.196Z,99.70
2018-11-25T15:07:49.205Z,106.20
2018-11-25T15:08:49.222Z,106.40
2018-11-25T15:09:49.229Z,100.90
2018-11-25T15:10:49.250Z,104.40
2018-11-25T15:11:49.256Z,101.30
2018-11-25T15:12:49.457Z,100.80
2018-11-25T15:13:49.276Z,108.10
2018-11-25T15:14:49.289Z,103.70
2018-11-25T15:15:49.302Z,101.60
2018-11-25T15:16:49.310Z,103.20
2018-11-25T15:17:49.324Z,107.90
2018-11-25T15:18:49.334Z,102.60
2018-11-25T15:19:49.347Z,111.80
2018-11-25T15:20:49.374Z,105.90
2018-11-25T15:21:49.373Z,105.50
2018-11-25T15:22:49.380Z,105.80
2018-11-25T15:23:49.398Z,105.40
2018-11-25T15:24:49.405Z,103.40
2018-11-25T15:25:49.416Z,105.60
2018-11-25T15:26:49.431Z,102.80
2018-11-25T15:27:49.440Z,104.90
2018-11-25T15:28:49.452Z,104.70
2018-11-25T15:29:49.467Z,110.40
2018-11-25T15:30:49.476Z,107.30
2018-11-25T15:31:49.486Z,109.10
2018-11-25T15:32:49.500Z,111.80
2018-11-25T15:33:49.522Z,106.50
2018-11-25T15:34:49.523Z,109.30
2018-11-25T15:35:49.531Z,107.40
2018-11-25T15:36:49.541Z,102.20
2018-11-25T15:37:49.568Z,109.40
2018-11-25T15:38:49.567Z,110.20
2018-11-25T15:39:49.579Z,108.90
2018-11-25T15:40:49.593Z,111.20
2018-11-25T15:41:49.609Z,99.60
2018-11-25T15:42:49.610Z,108.30
2018-11-25T15:43:49.623Z,105.40
2018-11-25T15:44:49.638Z,100.20
2018-11-25T15:45:49.645Z,107.30
2018-11-25T15:46:49.658Z,104.00
2018-11-25T15:47:49.671Z,106.70
2018-11-25T15:48:49.684Z,103.20
2018-11-25T15:49:49.694Z,101.30
2018-11-25T15:50:49.704Z,103.70
2018-11-25T15:51:49.717Z,99.90
2018-11-25T15:52:49.732Z,105.90
2018-11-25T15:53:49.742Z,101.00
2018-11-25T15:54:49.754Z,102.20
2018-11-25T15:55:49.768Z,94.90
2018-11-25T15:56:49.775Z,102.70
2018-11-25T15:57:49.789Z,104.30
2018-11-25T15:58:49.818Z,98.60
2018-11-25T15:59:49.814Z,95.90
2018-11-25T16:00:49.831Z,99.20
2018-11-25T16:01:49.834Z,98.80
2018-11-25T16:02:49.930Z,98.40
2018-11-25T16:03:49.867Z,97.40
2018-11-25T16:04:49.876Z,96.80
2018-11-25T16:05:49.881Z,101.40
2018-11-25T16:06:49.909Z,101.50
2018-11-25T16:07:49.947Z,98.30
2018-11-25T16:08:49.914Z,96.50
2018-11-25T16:09:49.928Z,98.20
2018-11-25T16:10:49.941Z,96.30
2018-11-25T16:11:49.956Z,100.50
2018-11-25T16:12:49.994Z,92.90
2018-11-25T16:13:50.000Z,91.40